CheckWX is a tool to help pilots better visualize weather data.  It is not intended as a substitute for an official pre-flight weather briefing.

06:56:44 UTC

KHOT TAF
Memorial Field Airport
Hot Springs, Arkansas, USA
KHOT 190540Z 1906/2006 VRB03KT P6SM SCT050 BKN250 FM191000 VRB03KT P6SM VCTS SCT025 BKN050CB OVC150 TEMPO 1910/1914 5SM -TSRA BR BKN025CB OVC050 FM191400 18008KT 5SM -TSRA BR BKN025CB OVC050 FM191900 21008G16KT P6SM VCTS SCT025 BKN050CB PROB30 1919/1924 2SM TSRA BR BKN025CB FM200000 23006KT P6SM SCT100 OVC250

Jun-19@
06:00 UTC

Jun-19 @ 06:00 UTC

Jun-19@
10:00 UTC

Jun-19 @ 10:00 UTC

KHOT 190540Z 1906/2006 VRB03KT P6SM SCT050 BKN250
Wind
  • Variable at 3 KTS
Cloud Levels
  • Scattered at 5,000' AGL
  • Broken at 25,000' AGL

Jun-19@
10:00 UTC

Jun-19 @ 10:00 UTC

Jun-19@
14:00 UTC

Jun-19 @ 14:00 UTC

TEMPO 1910/1914 5SM -TSRA BR BKN025CB OVC050

Temporary

Temporary Changes expected for less than half the time period

Conditions
Light Thunderstorm, Light Rain, Mist
Cloud Levels
  • Broken at 2,500' AGL
  • Overcast at 5,000' AGL

Jun-19@
10:00 UTC

Jun-19 @ 10:00 UTC

Jun-19@
14:00 UTC

Jun-19 @ 14:00 UTC

FM191000 VRB03KT P6SM VCTS SCT025 BKN050CB OVC150

From

From Standard forecast or significant change

Wind
  • Variable at 3 KTS
Conditions
Area Thunderstorm
Cloud Levels
  • Scattered at 2,500' AGL
  • Broken at 5,000' AGL
  • Overcast at 15,000' AGL

Jun-19@
14:00 UTC

Jun-19 @ 14:00 UTC

Jun-19@
19:00 UTC

Jun-19 @ 19:00 UTC

FM191400 18008KT 5SM -TSRA BR BKN025CB OVC050

From

From Standard forecast or significant change

Wind
  • 180° at 8 KTS
Conditions
Light Thunderstorm, Light Rain, Mist
Cloud Levels
  • Broken at 2,500' AGL
  • Overcast at 5,000' AGL

Jun-19@
19:00 UTC

Jun-19 @ 19:00 UTC

Jun-20@
00:00 UTC

Jun-20 @ 00:00 UTC

PROB30 1919/1924 2SM TSRA BR BKN025CB

Probable - 30% Likelihood

Probable - 30% Likelihood during this time.

Conditions
Thunderstorm, Rain, Mist
Cloud Levels
  • Broken at 2,500' AGL

Jun-19@
19:00 UTC

Jun-19 @ 19:00 UTC

Jun-20@
00:00 UTC

Jun-20 @ 00:00 UTC

FM191900 21008G16KT P6SM VCTS SCT025 BKN050CB

From

From Standard forecast or significant change

Wind
  • 210° at 8 KTS
  • {Gusting to 16 KTS
Conditions
Area Thunderstorm
Cloud Levels
  • Scattered at 2,500' AGL
  • Broken at 5,000' AGL

Jun-20@
00:00 UTC

Jun-20 @ 00:00 UTC

Jun-20@
06:00 UTC

Jun-20 @ 06:00 UTC

FM200000 23006KT P6SM SCT100 OVC250

From

From Standard forecast or significant change

Wind
  • 230° at 6 KTS
Cloud Levels
  • Scattered at 10,000' AGL
  • Overcast at 25,000' AGL